Time;durP1;ratioP1;P1;durP2;ratioP2;P2;SDS_P1;SDS_P2;PMS_P1;PMS_P2;Temp;Humidity;BMP_temperature;BMP_pressure;BME280_temperature;BME280_humidity;BME280_pressure;Samples;Min_cycle;Max_cycle;Signal;HPM_P1;HPM_P2
2021/08/25 00:01:10;;;;;;;12.95;11.68;;;;;;;26.55;58.74;101434.17;1675749;84;21063;-48
2021/08/25 00:03:37;;;;;;;16.65;10.75;;;;;;;26.52;58.84;101433.09;1642642;87;21078;-49
2021/08/25 00:06:03;;;;;;;16.80;11.15;;;;;;;26.52;58.89;101431.77;1662507;85;20998;-51
2021/08/25 00:08:29;;;;;;;13.85;12.07;;;;;;;26.50;58.88;101435.86;1666976;85;20981;-51
2021/08/25 00:10:56;;;;;;;12.88;11.25;;;;;;;26.49;58.83;101429.31;1664998;85;21600;-52
2021/08/25 00:13:24;;;;;;;12.25;11.05;;;;;;;26.47;58.74;101430.78;1635848;87;21064;-51
2021/08/25 00:15:52;;;;;;;15.75;11.90;;;;;;;26.47;58.78;101431.25;1667963;85;21562;-51
2021/08/25 00:18:19;;;;;;;12.15;11.10;;;;;;;26.44;58.85;101430.17;1692914;84;21020;-50
2021/08/25 00:20:46;;;;;;;11.83;10.63;;;;;;;26.42;58.69;101423.59;1691102;83;21017;-49
2021/08/25 00:23:12;;;;;;;12.10;10.50;;;;;;;26.41;58.82;101419.72;1677223;84;21041;-50
2021/08/25 00:25:39;;;;;;;13.40;11.05;;;;;;;26.36;58.86;101412.54;1675925;84;21010;-50
2021/08/25 00:28:05;;;;;;;12.47;10.75;;;;;;;26.36;58.86;101412.54;1676890;84;20997;-48
2021/08/25 00:30:33;;;;;;;11.70;10.55;;;;;;;26.34;59.41;101417.14;1643756;87;21546;-51
2021/08/25 00:33:00;;;;;;;11.88;10.68;;;;;;;26.34;59.55;101419.34;1659319;86;21058;-50
2021/08/25 00:35:27;;;;;;;12.18;10.95;;;;;;;26.32;59.32;101420.42;1650799;84;21027;-49
2021/08/25 00:37:54;;;;;;;13.60;10.85;;;;;;;26.34;59.20;101421.14;1651298;84;21583;-50
2021/08/25 00:40:21;;;;;;;12.78;10.90;;;;;;;26.34;59.20;101421.14;1653060;86;21042;-49
2021/08/25 00:42:47;;;;;;;11.60;10.60;;;;;;;26.32;59.39;101421.75;1669483;85;21076;-50
2021/08/25 00:45:14;;;;;;;11.85;10.75;;;;;;;26.32;59.39;101421.75;1665747;84;21513;-48
2021/08/25 00:47:42;;;;;;;12.25;11.08;;;;;;;26.29;59.18;101414.00;1663357;86;21105;-48
2021/08/25 00:50:10;;;;;;;12.78;11.57;;;;;;;26.29;59.34;101418.00;1649690;86;21049;-50
2021/08/25 00:52:38;;;;;;;11.70;10.63;;;;;;;26.25;59.48;101419.20;1645304;86;21091;-49
2021/08/25 00:55:06;;;;;;;13.60;10.85;;;;;;;26.25;59.74;101411.20;1638908;86;21093;-50
2021/08/25 00:57:36;;;;;;;11.93;10.80;;;;;;;26.25;59.74;101411.20;1654161;86;21034;-50
2021/08/25 01:00:08;;;;;;;12.33;11.15;;;;;;;26.21;59.56;101411.07;1663573;85;21005;-51
2021/08/25 01:03:03;;;;;;;15.08;12.13;;;;;;;26.21;59.53;101407.06;1663491;85;21537;-52
2021/08/25 01:05:32;;;;;;;12.95;11.68;;;;;;;26.19;59.99;101411.67;1612725;87;21589;-50
2021/08/25 01:07:59;;;;;;;11.93;10.85;;;;;;;26.19;59.99;101411.67;1615935;86;21076;-51
2021/08/25 01:10:29;;;;;;;13.08;11.78;;;;;;;26.18;59.84;101408.14;1621741;87;21087;-49
2021/08/25 01:13:02;;;;;;;14.05;12.65;;;;;;;26.18;59.50;101408.62;1618209;88;21128;-50
2021/08/25 01:15:30;;;;;;;12.23;10.98;;;;;;;26.15;59.50;101403.53;1609038;89;21080;-51
2021/08/25 01:18:02;;;;;;;12.68;11.48;;;;;;;26.15;59.50;101403.53;1565983;91;21031;-51
2021/08/25 01:20:29;;;;;;;13.22;11.50;;;;;;;26.17;60.95;101407.77;1617551;88;21114;-49
2021/08/25 01:22:57;;;;;;;12.70;10.40;;;;;;;26.17;60.95;101407.77;1617418;88;21599;-49
2021/08/25 01:25:26;;;;;;;11.57;10.48;;;;;;;26.16;62.01;101410.55;1607170;88;21074;-49
2021/08/25 01:27:56;;;;;;;11.97;10.80;;;;;;;26.18;62.33;101411.29;1617920;88;21011;-50
2021/08/25 01:30:25;;;;;;;11.70;10.65;;;;;;;26.18;62.33;101411.29;1592552;90;21638;-50
2021/08/25 01:32:52;;;;;;;11.97;10.65;;;;;;;26.16;62.50;101411.89;1565906;91;21117;-49
2021/08/25 01:35:18;;;;;;;12.55;11.22;;;;;;;26.18;62.71;101411.29;1617711;88;21534;-52
2021/08/25 01:37:45;;;;;;;12.70;11.10;;;;;;;26.19;62.56;101411.20;1617294;88;21127;-49
2021/08/25 01:40:14;;;;;;;12.30;11.10;;;;;;;26.19;62.56;101411.20;1618333;88;21015;-55
2021/08/25 01:42:43;;;;;;;12.78;11.68;;;;;;;26.20;62.73;101408.02;1642480;86;21547;-49
2021/08/25 01:45:10;;;;;;;12.07;10.98;;;;;;;26.22;62.62;101408.75;1658785;86;21024;-51
2021/08/25 01:47:36;;;;;;;12.50;11.40;;;;;;;26.23;62.54;101405.13;1658659;86;21068;-54
2021/08/25 01:50:04;;;;;;;12.75;11.10;;;;;;;26.24;62.44;101404.15;1654438;86;21038;-50
2021/08/25 01:52:31;;;;;;;11.28;10.25;;;;;;;26.25;62.34;101400.05;1654179;86;21114;-51
2021/08/25 01:54:57;;;;;;;11.05;9.95;;;;;;;26.26;62.18;101402.21;1654798;86;21033;-50
2021/08/25 01:57:24;;;;;;;11.20;10.20;;;;;;;26.25;62.03;101400.05;1654512;86;21544;-49
2021/08/25 01:59:50;;;;;;;10.65;9.85;;;;;;;26.27;62.03;101395.92;1654468;86;21085;-49
2021/08/25 02:02:17;;;;;;;13.20;11.38;;;;;;;26.26;62.24;101396.88;1654241;86;21626;-53
2021/08/25 02:04:43;;;;;;;13.15;10.15;;;;;;;26.24;62.60;101397.48;1654185;86;21074;-51
2021/08/25 02:07:10;;;;;;;10.88;9.80;;;;;;;26.24;62.60;101397.48;1654818;86;21479;-49
2021/08/25 02:09:37;;;;;;;10.45;9.48;;;;;;;26.22;62.79;101400.75;1656928;86;21022;-50
2021/08/25 02:12:05;;;;;;;13.32;10.30;;;;;;;26.19;62.91;101403.67;1660972;86;21506;-50
2021/08/25 02:14:32;;;;;;;18.00;10.63;;;;;;;26.15;62.57;101395.53;1666766;86;21534;-52
2021/08/25 02:17:01;;;;;;;12.63;11.33;;;;;;;26.15;62.57;101395.53;1656993;86;21048;-49
2021/08/25 02:19:27;;;;;;;16.12;12.93;;;;;;;26.16;62.38;101397.22;1664096;86;21035;-53
2021/08/25 02:21:55;;;;;;;17.05;14.23;;;;;;;26.16;62.69;101402.55;1654618;85;21563;-49
2021/08/25 02:24:22;;;;;;;16.25;14.65;;;;;;;26.16;62.69;101402.55;1663093;86;21094;-50
2021/08/25 02:26:49;;;;;;;24.30;17.20;;;;;;;26.17;62.43;101401.60;1649194;86;21530;-52
2021/08/25 02:29:16;;;;;;;20.40;16.52;;;;;;;26.16;62.06;101400.74;1662786;86;21021;-51
2021/08/25 02:31:42;;;;;;;18.82;16.25;;;;;;;26.16;61.93;101401.22;1663256;86;21001;-51
2021/08/25 02:34:09;;;;;;;18.17;14.58;;;;;;;26.15;62.06;101396.36;1662489;86;21119;-51
2021/08/25 02:36:35;;;;;;;15.72;12.93;;;;;;;26.15;62.06;101396.36;1662809;86;21030;-49
2021/08/25 02:39:03;;;;;;;14.60;13.10;;;;;;;26.16;62.18;101399.88;1660534;86;21042;-51
2021/08/25 02:41:30;;;;;;;18.27;13.70;;;;;;;26.16;62.14;101398.55;1660951;85;21052;-50
2021/08/25 02:43:58;;;;;;;15.30;13.80;;;;;;;26.17;61.88;101400.27;1664027;86;21500;-50
2021/08/25 02:46:24;;;;;;;14.85;12.93;;;;;;;26.14;61.81;101395.16;1664578;86;21026;-49
2021/08/25 02:48:51;;;;;;;12.98;11.68;;;;;;;26.14;61.81;101395.16;1658613;86;21545;-49
2021/08/25 02:51:18;;;;;;;12.95;11.85;;;;;;;26.14;61.68;101400.02;1662658;86;21085;-52
2021/08/25 02:53:44;;;;;;;13.45;12.10;;;;;;;26.14;61.68;101400.02;1665757;86;21596;-50
2021/08/25 02:56:12;;;;;;;12.03;10.82;;;;;;;26.12;61.72;101401.09;1661735;86;20986;-49
2021/08/25 02:58:38;;;;;;;11.35;10.23;;;;;;;26.12;61.72;101401.09;1664535;85;21005;-50
2021/08/25 03:01:04;;;;;;;8.98;8.28;;;;;;;26.09;61.65;101401.34;1661961;86;21026;-52
2021/08/25 03:03:31;;;;;;;8.83;8.03;;;;;;;26.04;61.85;101402.13;1665577;86;21035;-51
2021/08/25 03:05:58;;;;;;;9.38;7.80;;;;;;;26.00;62.02;101408.66;1663211;86;21534;-50
2021/08/25 03:08:24;;;;;;;10.15;9.33;;;;;;;25.96;62.25;101397.86;1667818;85;21032;-51
2021/08/25 03:10:51;;;;;;;8.63;7.83;;;;;;;25.92;62.24;101396.39;1662444;85;21505;-49
2021/08/25 03:13:17;;;;;;;9.58;8.10;;;;;;;25.92;62.24;101396.39;1644247;87;21011;-52
2021/08/25 03:15:44;;;;;;;9.73;8.73;;;;;;;25.91;62.52;101392.86;1658292;85;21001;-51
2021/08/25 03:18:10;;;;;;;8.75;7.95;;;;;;;25.91;62.52;101392.86;1663241;86;21525;-49
2021/08/25 03:20:37;;;;;;;8.65;7.92;;;;;;;25.93;62.58;101402.08;1661322;85;21009;-52
2021/08/25 03:23:03;;;;;;;10.05;8.98;;;;;;;25.93;62.47;101402.08;1662062;85;21050;-50
2021/08/25 03:25:33;;;;;;;9.80;8.85;;;;;;;25.94;62.57;101406.45;1665395;86;22544;-50
2021/08/25 03:27:59;;;;;;;9.85;8.93;;;;;;;25.94;62.57;101406.45;1624254;86;21155;-52
2021/08/25 03:30:26;;;;;;;8.50;7.80;;;;;;;25.96;62.46;101405.38;1639969;86;21194;-52
2021/08/25 03:32:53;;;;;;;9.25;8.20;;;;;;;25.98;62.39;101407.92;1634400;87;21061;-50
2021/08/25 03:35:19;;;;;;;12.95;9.13;;;;;;;25.98;62.33;101406.59;1639455;87;21054;-50
2021/08/25 03:37:46;;;;;;;25.23;9.95;;;;;;;25.99;62.29;101402.97;1642132;87;21124;-49
2021/08/25 03:40:13;;;;;;;8.90;8.03;;;;;;;26.00;62.27;101401.99;1643244;87;21065;-50
2021/08/25 03:42:41;;;;;;;9.80;8.80;;;;;;;25.96;62.40;101406.72;1649359;86;21067;-49
2021/08/25 03:45:09;;;;;;;8.55;7.58;;;;;;;25.96;62.40;101406.72;1682447;84;21029;-50
2021/08/25 03:47:36;;;;;;;8.45;7.65;;;;;;;25.99;62.00;101411.80;1659839;86;21557;-49
2021/08/25 03:50:06;;;;;;;10.40;7.95;;;;;;;26.01;61.93;101410.37;1658815;85;21042;-51
2021/08/25 03:52:33;;;;;;;15.83;10.13;;;;;;;26.00;61.89;101401.99;1664484;85;21085;-52
2021/08/25 03:55:00;;;;;;;16.73;10.65;;;;;;;25.99;61.96;101406.98;1659954;85;21054;-50
2021/08/25 03:57:27;;;;;;;10.10;9.10;;;;;;;26.01;62.00;101407.70;1659784;86;21088;-52
2021/08/25 03:59:53;;;;;;;11.30;10.30;;;;;;;26.03;62.22;101403.11;1665062;85;21038;-50
2021/08/25 04:02:20;;;;;;;10.35;9.30;;;;;;;26.03;62.42;101406.60;1666391;85;21069;-51
2021/08/25 04:04:46;;;;;;;13.55;8.83;;;;;;;26.06;62.64;101406.38;1657711;85;21535;-49
2021/08/25 04:07:13;;;;;;;11.38;10.28;;;;;;;26.09;62.88;101412.83;1666555;86;21053;-50
2021/08/25 04:09:41;;;;;;;11.30;9.95;;;;;;;26.12;63.04;101419.28;1656052;86;21125;-48
2021/08/25 04:12:08;;;;;;;11.50;10.32;;;;;;;26.15;63.26;101411.54;1643340;85;20987;-49
2021/08/25 04:14:37;;;;;;;10.93;9.88;;;;;;;26.17;63.45;101411.77;1663158;84;21053;-48
2021/08/25 04:17:03;;;;;;;10.88;9.88;;;;;;;26.21;63.51;101405.26;1664440;86;21553;-49
2021/08/25 04:19:30;;;;;;;13.22;9.70;;;;;;;26.21;63.51;101405.26;1663123;85;21017;-51
2021/08/25 04:21:57;;;;;;;10.55;9.55;;;;;;;26.27;63.53;101406.59;1664675;85;21529;-50
2021/08/25 04:24:24;;;;;;;10.95;9.78;;;;;;;26.29;63.52;101407.33;1669585;85;21029;-49
2021/08/25 04:26:52;;;;;;;15.98;9.33;;;;;;;26.36;63.23;101396.53;1638031;86;21062;-48
2021/08/25 04:29:19;;;;;;;12.23;10.63;;;;;;;26.38;63.03;101398.59;1642765;86;21070;-49
2021/08/25 04:31:45;;;;;;;19.65;11.70;;;;;;;26.38;63.03;101398.59;1676741;83;21077;-50
2021/08/25 04:34:12;;;;;;;11.88;10.68;;;;;;;26.42;63.50;101400.09;1654016;85;21629;-47
2021/08/25 04:36:40;;;;;;;14.05;10.30;;;;;;;26.49;63.48;101402.63;1652452;86;21046;-48
2021/08/25 04:39:07;;;;;;;16.12;11.20;;;;;;;26.49;63.48;101402.63;1663754;85;21549;-48
2021/08/25 04:41:33;;;;;;;67.92;11.60;;;;;;;26.53;63.11;101401.41;1662526;85;21089;-50
2021/08/25 04:44:00;;;;;;;10.93;7.95;;;;;;;26.53;63.11;101401.41;1667431;85;21073;-48
2021/08/25 04:46:27;;;;;;;11.53;9.20;;;;;;;26.53;62.87;101400.08;1663476;86;21038;-52
2021/08/25 04:48:53;;;;;;;9.40;8.53;;;;;;;26.53;63.17;101400.94;1661314;85;21073;-48
2021/08/25 04:51:20;;;;;;;11.80;8.65;;;;;;;26.53;62.63;101392.94;1665322;85;21534;-48
2021/08/25 04:53:46;;;;;;;10.10;8.25;;;;;;;26.53;62.63;101392.94;1660539;85;21081;-47
2021/08/25 04:56:13;;;;;;;9.10;8.28;;;;;;;26.61;62.96;101400.33;1663637;85;21031;-49
2021/08/25 04:58:39;;;;;;;9.78;8.78;;;;;;;26.61;62.91;101401.66;1632288;87;21558;-47
2021/08/25 05:01:07;;;;;;;13.68;10.18;;;;;;;26.61;62.91;101401.66;1668271;85;21040;-50
2021/08/25 05:03:34;;;;;;;11.03;9.93;;;;;;;26.59;62.89;101396.45;1671666;85;20985;-51
2021/08/25 05:06:08;;;;;;;12.73;11.38;;;;;;;26.61;62.90;101394.98;1666632;85;21537;-50
2021/08/25 05:08:35;;;;;;;11.12;10.13;;;;;;;26.63;62.98;101385.05;1668258;85;21034;-48
2021/08/25 05:11:02;;;;;;;12.55;10.88;;;;;;;26.66;62.95;101386.16;1670176;85;21032;-49
2021/08/25 05:13:30;;;;;;;11.33;9.95;;;;;;;26.66;63.00;101379.48;1667624;85;21033;-48
2021/08/25 05:15:57;;;;;;;10.75;9.45;;;;;;;26.72;63.04;101381.70;1667768;85;21049;-50
2021/08/25 05:18:24;;;;;;;10.13;9.23;;;;;;;26.72;63.11;101376.35;1668108;85;21329;-50
2021/08/25 05:20:50;;;;;;;11.53;10.43;;;;;;;26.77;63.19;101378.66;1664861;85;21020;-49
2021/08/25 05:23:17;;;;;;;11.28;10.28;;;;;;;26.81;63.21;101374.78;1669542;85;21030;-48
2021/08/25 05:25:45;;;;;;;12.43;10.60;;;;;;;26.80;63.20;101369.92;1664403;85;21045;-48
2021/08/25 05:28:12;;;;;;;11.85;10.75;;;;;;;26.85;63.22;101374.42;1624212;86;21730;-48
2021/08/25 05:30:38;;;;;;;13.62;10.78;;;;;;;26.87;63.20;101377.81;1629252;87;21082;-50
2021/08/25 05:33:05;;;;;;;11.43;10.32;;;;;;;26.89;63.20;101377.20;1632262;87;21090;-51
2021/08/25 05:35:33;;;;;;;8.65;7.90;;;;;;;26.93;63.55;101373.31;1640195;86;21526;-49
2021/08/25 05:37:59;;;;;;;8.93;8.03;;;;;;;26.93;63.55;101373.31;1644734;87;21570;-50
2021/08/25 05:40:26;;;;;;;9.80;8.38;;;;;;;26.99;63.36;101378.64;1638078;87;21073;-49
2021/08/25 05:42:54;;;;;;;9.25;8.40;;;;;;;27.01;63.36;101376.22;1665573;85;21086;-50
2021/08/25 05:45:20;;;;;;;9.48;8.65;;;;;;;27.04;63.31;101384.45;1661487;85;21505;-54
2021/08/25 05:47:47;;;;;;;10.80;9.03;;;;;;;27.14;63.26;101380.09;1665982;85;21033;-49
2021/08/25 05:50:13;;;;;;;9.83;8.93;;;;;;;27.17;63.08;101377.16;1620771;87;21078;-49
2021/08/25 05:52:40;;;;;;;13.48;10.15;;;;;;;27.17;63.08;101377.16;1660106;84;21180;-48
2021/08/25 05:55:07;;;;;;;12.50;9.23;;;;;;;27.24;63.11;101379.19;1666022;84;21551;-49
2021/08/25 05:57:34;;;;;;;9.65;8.73;;;;;;;27.35;62.45;101385.89;1657366;84;21066;-48
2021/08/25 06:00:00;;;;;;;10.70;8.68;;;;;;;27.35;62.45;101385.89;1652560;85;21090;-48
2021/08/25 06:02:27;;;;;;;13.78;8.95;;;;;;;27.39;62.95;101383.33;1660220;84;21074;-51
2021/08/25 06:04:53;;;;;;;10.25;9.23;;;;;;;27.47;63.00;101384.53;1660108;85;21613;-48
2021/08/25 06:07:20;;;;;;;10.43;9.33;;;;;;;27.56;63.00;101389.10;1655794;85;21009;-48
2021/08/25 06:09:48;;;;;;;11.55;10.45;;;;;;;27.67;62.64;101393.09;1638086;86;21066;-50
2021/08/25 06:12:14;;;;;;;14.03;12.63;;;;;;;27.76;62.36;101399.84;1646864;86;21071;-50
2021/08/25 06:14:41;;;;;;;11.40;9.15;;;;;;;27.87;61.94;101399.81;1636873;87;21045;-48
2021/08/25 06:17:08;;;;;;;16.65;9.73;;;;;;;27.98;61.85;101398.95;1644878;86;21054;-50
2021/08/25 06:19:35;;;;;;;10.68;9.68;;;;;;;28.10;61.68;101391.22;1651596;87;21015;-48
2021/08/25 06:22:03;;;;;;;9.93;9.05;;;;;;;28.21;61.31;101395.18;1664268;86;21517;-50
2021/08/25 06:24:30;;;;;;;15.55;10.70;;;;;;;28.30;61.02;101389.02;1658345;85;21097;-48
2021/08/25 06:26:56;;;;;;;16.55;8.93;;;;;;;28.40;60.70;101388.58;1662498;85;21037;-51
2021/08/25 06:29:23;;;;;;;10.48;8.48;;;;;;;28.47;60.23;101391.10;1679035;84;21108;-48
2021/08/25 06:31:50;;;;;;;11.40;8.03;;;;;;;28.54;59.90;101402.14;1681709;84;21129;-50
2021/08/25 06:34:17;;;;;;;7.70;6.97;;;;;;;28.60;59.63;101397.14;1653852;85;21094;-50
2021/08/25 06:36:44;;;;;;;9.43;7.25;;;;;;;28.67;59.26;101389.39;1673323;84;21100;-50
2021/08/25 06:39:11;;;;;;;9.80;7.50;;;;;;;28.72;58.78;101396.06;1683114;83;21539;-50
2021/08/25 06:41:37;;;;;;;10.03;6.83;;;;;;;28.75;58.62;101394.92;1678519;85;21054;-51
2021/08/25 06:44:05;;;;;;;10.20;6.85;;;;;;;28.82;57.80;101394.27;1683152;84;21038;-51
2021/08/25 06:46:32;;;;;;;7.67;7.00;;;;;;;28.88;57.47;101400.43;1668998;85;21074;-51
2021/08/25 06:48:59;;;;;;;9.28;6.92;;;;;;;28.97;56.92;101398.25;1675588;85;21046;-51
2021/08/25 06:51:26;;;;;;;7.42;6.72;;;;;;;29.06;56.20;101397.11;1666964;85;21508;-48
2021/08/25 06:53:53;;;;;;;7.92;7.12;;;;;;;29.14;54.84;101398.62;1669057;85;21071;-51
2021/08/25 06:56:20;;;;;;;11.70;7.42;;;;;;;29.21;54.06;101399.30;1669136;85;21548;-50
2021/08/25 06:58:46;;;;;;;7.22;6.50;;;;;;;29.28;54.39;101400.94;1669423;85;21064;-50
2021/08/25 07:01:14;;;;;;;10.32;7.00;;;;;;;29.32;54.93;101403.70;1660193;85;22153;-49
2021/08/25 07:03:42;;;;;;;12.45;7.85;;;;;;;29.38;55.09;101410.70;1669197;85;21054;-49
2021/08/25 07:06:08;;;;;;;11.65;7.33;;;;;;;29.43;55.06;101411.63;1668827;85;20976;-49
2021/08/25 07:08:37;;;;;;;8.23;7.40;;;;;;;29.46;54.81;101411.34;1667346;85;21035;-50
2021/08/25 07:11:04;;;;;;;10.65;7.40;;;;;;;29.48;54.17;101416.07;1663640;85;21096;-49
2021/08/25 07:13:32;;;;;;;7.83;6.72;;;;;;;29.49;54.34;101420.46;1665548;85;21013;-49
2021/08/25 07:15:59;;;;;;;7.67;6.87;;;;;;;29.52;54.09;101416.14;1670818;85;21025;-48
2021/08/25 07:18:26;;;;;;;7.65;6.95;;;;;;;29.57;54.04;101416.59;1668572;85;21059;-48
2021/08/25 07:20:53;;;;;;;7.40;6.50;;;;;;;29.61;54.10;101413.98;1667506;85;21083;-49
2021/08/25 07:23:20;;;;;;;7.53;6.42;;;;;;;29.67;54.33;101416.10;1666782;85;21032;-47
2021/08/25 07:25:47;;;;;;;8.03;7.28;;;;;;;29.70;54.26;101419.34;1664490;85;21081;-50
2021/08/25 07:28:14;;;;;;;7.47;6.78;;;;;;;29.71;54.32;101419.71;1667329;85;21086;-47
2021/08/25 07:30:41;;;;;;;7.97;7.17;;;;;;;29.75;53.59;101412.26;1663549;85;21025;-48
2021/08/25 07:33:12;;;;;;;8.38;6.67;;;;;;;29.79;53.22;101417.69;1669411;85;21061;-49
2021/08/25 07:35:36;;;;;;;8.80;6.00;;;;;;;29.85;53.44;101413.59;1662222;85;21062;-49
2021/08/25 07:38:03;;;;;;;8.43;6.10;;;;;;;29.87;52.13;101414.30;1671935;85;21096;-47
2021/08/25 07:40:30;;;;;;;7.85;6.10;;;;;;;29.87;50.47;101409.78;1667097;85;21076;-47
2021/08/25 07:42:56;;;;;;;8.65;6.47;;;;;;;29.87;49.41;101404.41;1666906;85;21577;-49
2021/08/25 07:45:25;;;;;;;8.28;6.80;;;;;;;29.87;48.99;101399.53;1665347;85;21048;-48
2021/08/25 07:47:52;;;;;;;10.13;8.18;;;;;;;29.85;48.32;101405.05;1664930;85;21050;-48
2021/08/25 07:50:19;;;;;;;9.83;7.28;;;;;;;29.86;49.13;101409.45;1669310;85;21068;-48
2021/08/25 07:52:45;;;;;;;8.50;7.08;;;;;;;29.85;49.51;101413.10;1666677;85;21511;-48
2021/08/25 07:55:13;;;;;;;7.90;6.40;;;;;;;29.85;50.35;101415.78;1660733;85;21106;-47
2021/08/25 07:57:39;;;;;;;6.97;6.40;;;;;;;29.85;50.54;101414.93;1668672;85;21034;-48
2021/08/25 08:00:07;;;;;;;6.90;6.20;;;;;;;29.85;49.65;101405.54;1669187;85;21505;-47
2021/08/25 08:02:35;;;;;;;7.70;6.17;;;;;;;29.82;49.24;101410.69;1669466;85;21510;-48
2021/08/25 08:05:04;;;;;;;7.85;6.62;;;;;;;29.81;49.13;101398.27;1661423;85;21046;-48
2021/08/25 08:07:30;;;;;;;7.10;6.25;;;;;;;29.82;48.78;101404.50;1668745;85;21046;-46
2021/08/25 08:09:57;;;;;;;13.62;6.60;;;;;;;29.82;48.04;101401.30;1667428;85;21102;-51
2021/08/25 08:12:24;;;;;;;7.33;5.92;;;;;;;29.85;48.03;101400.17;1669324;85;21076;-46
2021/08/25 08:14:51;;;;;;;7.45;6.45;;;;;;;29.87;46.36;101401.73;1669289;84;21029;-52
2021/08/25 08:17:21;;;;;;;10.40;7.00;;;;;;;29.88;47.02;101396.73;1667513;85;21507;-47
2021/08/25 08:19:47;;;;;;;9.73;6.45;;;;;;;29.89;46.05;101397.07;1667322;85;21084;-48
2021/08/25 08:22:14;;;;;;;10.35;7.30;;;;;;;29.91;47.07;101399.12;1660834;85;21034;-50
2021/08/25 08:24:42;;;;;;;8.13;7.28;;;;;;;29.94;47.98;101395.31;1669176;85;21017;-46
2021/08/25 08:27:09;;;;;;;10.28;7.50;;;;;;;29.98;48.99;101393.55;1667514;85;21077;-50
2021/08/25 08:29:35;;;;;;;8.15;7.35;;;;;;;30.02;49.44;101388.73;1666949;85;21102;-48
2021/08/25 08:32:03;;;;;;;7.70;6.42;;;;;;;30.06;49.86;101385.63;1667714;85;21058;-49
2021/08/25 08:34:30;;;;;;;7.60;6.83;;;;;;;30.12;50.17;101391.77;1667570;85;21534;-46
2021/08/25 08:36:57;;;;;;;9.63;7.83;;;;;;;30.18;50.18;101386.30;1668415;85;21090;-50
2021/08/25 08:39:24;;;;;;;9.18;5.97;;;;;;;30.23;50.17;101384.88;1669503;85;21001;-50
2021/08/25 08:41:50;;;;;;;8.33;6.92;;;;;;;30.30;49.98;101385.17;1669525;85;21117;-49
2021/08/25 08:44:18;;;;;;;8.73;7.30;;;;;;;30.36;49.58;101385.45;1661759;85;21609;-49
2021/08/25 08:46:50;;;;;;;6.92;6.28;;;;;;;30.42;49.41;101386.20;1669051;85;21093;-49
2021/08/25 08:49:17;;;;;;;;;;;;;;;30.50;49.19;101376.92;1671645;85;21577;-47
2021/08/25 08:51:43;;;;;;;7.58;6.87;;;;;;;30.56;48.86;101380.03;1669744;85;20107;-48
2021/08/25 08:54:11;;;;;;;7.17;6.33;;;;;;;30.60;48.76;101370.69;1669582;85;21532;-49
2021/08/25 08:56:38;;;;;;;9.60;7.72;;;;;;;30.63;48.63;101372.57;1658034;85;21116;-53
2021/08/25 08:59:05;;;;;;;11.45;7.53;;;;;;;30.68;48.28;101370.80;1669023;85;21074;-47
2021/08/25 09:01:33;;;;;;;10.40;7.20;;;;;;;30.71;48.23;101375.36;1669452;85;21029;-48
2021/08/25 09:04:00;;;;;;;8.13;7.28;;;;;;;30.75;48.03;101374.59;1641624;85;21485;-50
2021/08/25 09:09:12;;;;;;;7.33;6.70;;;;;;;30.80;47.13;101367.77;1657820;84;21047;-47
2021/08/25 09:11:57;;;;;;;9.03;6.95;;;;;;;30.83;46.89;101363.95;1641535;86;21070;-45
2021/08/25 09:14:25;;;;;;;7.62;6.65;;;;;;;30.85;46.49;101364.16;1635231;86;21555;-46
2021/08/25 09:16:52;;;;;;;9.95;6.40;;;;;;;30.87;46.16;101359.48;1636897;86;21041;-48
2021/08/25 09:19:18;;;;;;;7.22;5.80;;;;;;;30.90;45.96;101362.37;1647168;86;21094;-50
2021/08/25 09:21:52;;;;;;;7.08;6.30;;;;;;;30.90;45.79;101358.34;1659050;86;21084;-51
2021/08/25 09:24:23;;;;;;;6.50;5.85;;;;;;;30.91;45.52;101358.70;1647239;85;21121;-45
2021/08/25 09:27:09;;;;;;;6.83;6.10;;;;;;;30.92;45.06;101352.31;1629998;86;21080;-48
2021/08/25 09:29:40;;;;;;;8.03;6.40;;;;;;;30.93;45.54;101348.16;1638256;86;21096;-48
2021/08/25 09:32:18;;;;;;;6.05;5.30;;;;;;;30.96;45.64;101357.73;1632317;86;21053;-48
2021/08/25 09:34:44;;;;;;;8.68;5.87;;;;;;;30.98;45.63;101353.06;1658901;85;21042;-49
2021/08/25 09:37:15;;;;;;;9.00;6.60;;;;;;;30.98;45.28;101343.66;1663925;85;21142;-48
2021/08/25 09:39:47;;;;;;;8.53;6.80;;;;;;;30.98;45.09;101343.66;1659934;85;21026;-48
2021/08/25 09:42:18;;;;;;;9.23;7.35;;;;;;;30.98;45.33;101339.13;1693270;84;21090;-48
2021/08/25 09:44:45;;;;;;;8.25;6.85;;;;;;;31.00;46.11;101341.66;1683177;83;21026;-49
2021/08/25 09:47:13;;;;;;;8.05;6.53;;;;;;;31.03;46.88;101342.72;1679205;84;21029;-48
2021/08/25 09:49:39;;;;;;;6.78;6.15;;;;;;;31.04;47.18;101333.64;1669255;84;21637;-48
2021/08/25 09:52:06;;;;;;;7.33;6.72;;;;;;;31.05;47.57;101334.00;1661400;84;21086;-49
2021/08/25 09:54:34;;;;;;;7.12;6.42;;;;;;;31.09;47.84;101325.48;1691597;84;21006;-49
2021/08/25 09:57:01;;;;;;;10.13;9.15;;;;;;;31.13;47.67;101331.41;1652341;84;21058;-49
2021/08/25 09:59:29;;;;;;;11.48;8.15;;;;;;;31.15;47.71;101337.47;1651857;85;21593;-49
2021/08/25 10:01:56;;;;;;;10.80;9.63;;;;;;;31.18;47.53;101326.43;1662955;84;21088;-48
2021/08/25 10:04:22;;;;;;;8.55;7.75;;;;;;;31.21;47.68;101327.45;1670251;85;21049;-48
2021/08/25 10:06:51;;;;;;;9.40;8.50;;;;;;;31.24;47.62;101325.81;1695694;84;21040;-49
2021/08/25 10:09:18;;;;;;;9.48;8.50;;;;;;;31.27;47.44;101322.80;1681542;83;21051;-49
2021/08/25 10:11:53;;;;;;;11.10;9.98;;;;;;;31.30;47.06;101319.83;1654346;86;21109;-49
2021/08/25 10:14:19;;;;;;;10.03;9.13;;;;;;;31.33;46.65;101323.54;1611420;88;21557;-50
2021/08/25 10:16:50;;;;;;;8.63;7.28;;;;;;;31.34;46.53;101317.17;1594197;89;21130;-47
2021/08/25 10:19:38;;;;;;;7.92;7.22;;;;;;;31.36;46.49;101319.22;1633689;87;21558;-48
2021/08/25 10:22:19;;;;;;;8.20;6.65;;;;;;;31.38;46.13;101325.28;1628658;87;21418;-47
2021/08/25 10:25:02;;;;;;;6.90;6.30;;;;;;;31.39;46.16;101319.41;1621873;87;21574;-47
2021/08/25 10:27:32;;;;;;;7.03;6.17;;;;;;;31.38;46.31;101318.56;1623556;87;21538;-47
2021/08/25 10:30:09;;;;;;;6.85;5.47;;;;;;;31.39;46.38;101318.92;1629824;86;21026;-46
2021/08/25 10:32:41;;;;;;;11.10;7.28;;;;;;;31.40;46.25;101317.09;1641096;87;21053;-49
2021/08/25 10:35:31;;;;;;;9.03;8.10;;;;;;;31.39;45.96;101308.16;1615607;89;21086;-49
2021/08/25 10:38:24;;;;;;;7.58;6.67;;;;;;;31.39;46.17;101313.54;1597077;89;21042;-49
2021/08/25 10:40:54;;;;;;;10.48;6.70;;;;;;;31.38;46.37;101303.77;1599044;89;21066;-49
2021/08/25 10:43:42;;;;;;;7.28;6.03;;;;;;;31.39;45.96;101304.62;1600598;89;21244;-48
2021/08/25 10:46:13;;;;;;;8.23;6.72;;;;;;;31.38;46.24;101306.45;1594529;89;21026;-47
2021/08/25 10:48:52;;;;;;;8.05;5.95;;;;;;;31.38;46.43;101297.53;1593985;89;21058;-48
2021/08/25 10:51:29;;;;;;;6.75;5.67;;;;;;;31.40;46.69;101307.18;1609185;89;21060;-47
2021/08/25 10:53:57;;;;;;;7.05;6.37;;;;;;;31.40;46.92;101304.48;1604426;89;21625;-49
2021/08/25 10:56:30;;;;;;;8.13;7.42;;;;;;;31.41;46.76;101303.47;1596041;88;21107;-49
2021/08/25 10:59:02;;;;;;;6.85;6.17;;;;;;;31.42;46.18;101302.49;1595472;89;21042;-47
2021/08/25 11:01:36;;;;;;;6.92;6.33;;;;;;;31.45;46.07;101309.41;1607548;89;21101;-50
2021/08/25 11:04:16;;;;;;;7.03;5.78;;;;;;;31.46;46.06;101309.25;1591525;89;21096;-49
2021/08/25 11:07:02;;;;;;;9.83;6.50;;;;;;;31.47;46.38;101306.89;1605887;89;21152;-49
2021/08/25 11:09:41;;;;;;;8.18;7.37;;;;;;;31.48;45.80;101301.87;1593629;89;21046;-48
2021/08/25 11:12:19;;;;;;;13.25;10.75;;;;;;;31.50;45.74;101293.14;1653225;85;21069;-47
2021/08/25 11:14:50;;;;;;;13.32;11.63;;;;;;;31.50;46.04;101286.42;1646567;86;21666;-50
2021/08/25 11:17:26;;;;;;;12.53;11.25;;;;;;;31.51;46.03;101285.41;1645731;86;21022;-48
2021/08/25 11:20:00;;;;;;;13.68;10.70;;;;;;;31.52;46.08;101280.39;1647424;86;21125;-49
2021/08/25 11:22:47;;;;;;;11.78;10.35;;;;;;;31.51;46.09;101274.64;1637575;86;21109;-51
2021/08/25 11:25:16;;;;;;;10.98;9.88;;;;;;;31.52;45.81;101277.70;1592773;88;21066;-49